createdAt,value
2023-01-21T00:08:20.847Z,27.392578125
2023-01-21T00:18:20.788Z,27.9052734375
2023-01-21T00:28:20.727Z,28.80859375
2023-01-21T00:38:20.653Z,28.3935546875
2023-01-21T00:48:20.585Z,28.3935546875
2023-01-21T00:58:20.520Z,28.1982421875
2023-01-21T01:08:20.556Z,28.90625
2023-01-21T01:18:20.379Z,29.00390625
2023-01-21T01:28:20.295Z,30.2001953125
2023-01-21T01:38:20.218Z,29.296875
2023-01-21T01:48:20.147Z,29.00390625
2023-01-21T01:58:20.047Z,30.1025390625
2023-01-21T02:08:20.022Z,29.296875
2023-01-21T02:18:19.947Z,30.2001953125
2023-01-21T02:28:19.869Z,29.8095703125
2023-01-21T02:38:19.917Z,28.0029296875
2023-01-21T02:48:19.742Z,28.4912109375
2023-01-21T02:58:19.631Z,27.099609375
2023-01-21T03:08:19.593Z,26.904296875
2023-01-21T03:18:19.493Z,26.904296875
2023-01-21T03:28:19.461Z,25.8056640625
2023-01-21T03:38:19.400Z,24.90234375
2023-01-21T03:48:19.319Z,23.9990234375
2023-01-21T03:58:19.212Z,22.998046875
2023-01-21T04:08:19.130Z,22.705078125
2023-01-21T04:18:19.056Z,22.49755859375
2023-01-21T04:28:19.022Z,22.30224609375
2023-01-21T04:38:18.967Z,21.8994140625
2023-01-21T04:48:18.851Z,21.59423828125
2023-01-21T04:58:18.763Z,21.39892578125
2023-01-21T05:08:18.705Z,21.20361328125
2023-01-21T05:18:18.621Z,20.703125
2023-01-21T05:28:18.559Z,20.49560546875
2023-01-21T05:38:18.589Z,20.10498046875
2023-01-21T05:48:18.412Z,19.8974609375
2023-01-21T05:58:18.324Z,19.7021484375
2023-01-21T06:08:18.251Z,19.49462890625
2023-01-21T06:18:18.209Z,19.49462890625
2023-01-21T06:28:18.155Z,19.20166015625
2023-01-21T06:38:18.042Z,18.896484375
2023-01-21T06:48:17.991Z,18.603515625
2023-01-21T06:58:17.921Z,18.39599609375
2023-01-21T07:08:17.851Z,18.39599609375
2023-01-21T07:18:17.776Z,18.00537109375
2023-01-21T07:28:17.718Z,17.8955078125
2023-01-21T07:38:17.597Z,17.6025390625
2023-01-21T07:48:17.560Z,17.39501953125
2023-01-21T07:58:17.462Z,17.39501953125
2023-01-21T08:08:17.381Z,17.5048828125
2023-01-21T08:18:17.432Z,17.5048828125
2023-01-21T08:28:17.234Z,17.5048828125
2023-01-21T08:38:17.187Z,17.00439453125
2023-01-21T08:48:17.109Z,16.796875
2023-01-21T08:58:17.051Z,16.6015625
2023-01-21T09:08:17.098Z,16.39404296875
2023-01-21T09:18:16.899Z,16.10107421875
2023-01-21T09:28:16.919Z,16.00341796875
2023-01-21T09:38:16.736Z,15.90576171875
2023-01-21T09:48:16.652Z,15.7958984375
2023-01-21T09:58:16.718Z,15.6982421875
2023-01-21T10:08:16.629Z,15.5029296875
2023-01-21T10:18:16.466Z,15.4052734375
2023-01-21T10:28:16.488Z,15.29541015625
2023-01-21T10:38:16.394Z,15.10009765625
2023-01-21T10:48:16.230Z,15.00244140625
2023-01-21T10:58:16.130Z,14.90478515625
2023-01-21T11:08:16.080Z,14.794921875
2023-01-21T11:18:16.082Z,14.697265625
2023-01-21T11:28:17.335Z,14.697265625
2023-01-21T11:38:15.932Z,14.501953125
2023-01-21T11:48:15.815Z,14.404296875
2023-01-21T11:58:15.690Z,14.404296875
2023-01-21T12:08:15.758Z,14.501953125
2023-01-21T12:18:15.677Z,14.404296875
2023-01-21T12:28:15.494Z,14.501953125
2023-01-21T12:38:15.481Z,14.29443359375
2023-01-21T12:48:15.583Z,14.29443359375
2023-01-21T12:58:15.265Z,14.19677734375
2023-01-21T13:08:15.253Z,14.09912109375
2023-01-21T13:18:15.160Z,14.00146484375
2023-01-21T13:28:15.096Z,13.90380859375
2023-01-21T13:38:15.026Z,13.7939453125
2023-01-21T13:48:14.996Z,13.7939453125
2023-01-21T13:58:14.858Z,13.7939453125
2023-01-21T14:08:14.757Z,13.6962890625
2023-01-21T14:18:14.731Z,13.6962890625
2023-01-21T14:28:14.758Z,13.6962890625
2023-01-21T14:38:14.594Z,13.5986328125
2023-01-21T14:48:14.513Z,13.5986328125
2023-01-21T14:58:14.410Z,13.5986328125
2023-01-21T15:08:14.325Z,13.5986328125
2023-01-21T15:18:14.251Z,13.5009765625
2023-01-21T15:28:14.256Z,13.4033203125
2023-01-21T15:38:14.127Z,13.4033203125
2023-01-21T15:48:14.236Z,13.4033203125
2023-01-21T15:58:14.011Z,13.4033203125
2023-01-21T16:08:13.891Z,13.3056640625
2023-01-21T16:18:13.822Z,13.19580078125
2023-01-21T16:28:13.791Z,13.19580078125
2023-01-21T16:38:13.697Z,13.19580078125
2023-01-21T16:48:13.629Z,13.19580078125
2023-01-21T16:58:13.522Z,13.19580078125
2023-01-21T17:08:13.462Z,13.19580078125
2023-01-21T17:18:13.386Z,13.3056640625
2023-01-21T17:28:13.344Z,13.4033203125
2023-01-21T17:38:13.269Z,13.4033203125
2023-01-21T17:48:14.721Z,13.4033203125
2023-01-21T17:58:13.092Z,13.5009765625
2023-01-21T18:08:13.033Z,13.5009765625
2023-01-21T18:18:12.947Z,13.5009765625
2023-01-21T18:28:12.881Z,13.5986328125
2023-01-21T18:38:12.846Z,13.7939453125
2023-01-21T18:48:12.760Z,14.404296875
2023-01-21T18:58:12.686Z,14.501953125
2023-01-21T19:08:12.619Z,14.501953125
2023-01-21T19:18:12.524Z,14.501953125
2023-01-21T19:28:12.519Z,14.501953125
2023-01-21T19:38:12.471Z,14.501953125
2023-01-21T19:48:12.326Z,14.90478515625
2023-01-21T19:58:12.260Z,15.4052734375
2023-01-21T20:08:12.185Z,15.6005859375
2023-01-21T20:18:12.125Z,15.90576171875
2023-01-21T20:28:12.020Z,17.10205078125
2023-01-21T20:38:11.954Z,17.7001953125
2023-01-21T20:48:11.934Z,17.6025390625
2023-01-21T20:58:11.809Z,17.7978515625
2023-01-21T21:08:11.747Z,19.49462890625
2023-01-21T21:18:11.651Z,20.20263671875
2023-01-21T21:28:11.604Z,19.39697265625
2023-01-21T21:38:11.539Z,19.10400390625
2023-01-21T21:48:11.447Z,20.703125
2023-01-21T21:58:11.353Z,20.99609375
2023-01-21T22:08:11.341Z,20.80078125
2023-01-21T22:18:11.215Z,20.703125
2023-01-21T22:28:11.126Z,21.10595703125
2023-01-21T22:38:11.065Z,22.0947265625
2023-01-21T22:48:10.984Z,22.30224609375
2023-01-21T22:58:10.948Z,22.49755859375
2023-01-21T23:08:10.874Z,21.49658203125
2023-01-21T23:18:10.783Z,23.59619140625
2023-01-21T23:28:10.830Z,22.20458984375
2023-01-21T23:38:10.633Z,23.30322265625
2023-01-21T23:48:10.576Z,23.49853515625
2023-01-21T23:58:10.492Z,23.20556640625
